Time;durP1;ratioP1;P1;durP2;ratioP2;P2;SDS_P1;SDS_P2;PMS_P1;PMS_P2;Temp;Humidity;BMP_temperature;BMP_pressure;BME280_temperature;BME280_humidity;BME280_pressure;Samples;Min_cycle;Max_cycle;Signal;HPM_P1;HPM_P2
2023/07/22 00:04:43;;;;;;;34.17;20.08;;;;;;;11.90;89.23;100204.16;10160346;29;20051;-77
2023/07/22 00:09:45;;;;;;;35.95;20.55;;;;;;;11.86;89.33;100204.56;10153476;29;20044;-75
2023/07/22 00:14:48;;;;;;;35.08;20.35;;;;;;;11.86;89.16;100204.56;10155540;29;20421;-76
2023/07/22 00:19:52;;;;;;;31.88;20.05;;;;;;;11.84;89.13;100188.53;10153446;29;20047;-76
2023/07/22 00:24:55;;;;;;;34.70;19.08;;;;;;;11.88;89.14;100186.44;10147789;29;20416;-76
2023/07/22 00:29:58;;;;;;;36.90;20.08;;;;;;;11.79;88.73;100192.63;10146678;29;20412;-76
2023/07/22 00:35:02;;;;;;;34.08;20.90;;;;;;;11.61;89.72;100193.28;10149296;29;20047;-76
2023/07/22 00:40:11;;;;;;;37.33;20.05;;;;;;;11.81;89.50;100190.66;10146443;29;20394;-76
2023/07/22 00:45:15;;;;;;;35.78;22.13;;;;;;;11.75;89.98;100189.34;10143390;29;20513;-76
2023/07/22 00:50:19;;;;;;;39.90;22.52;;;;;;;11.92;89.47;100179.78;10158368;29;20732;-76
2023/07/22 00:55:23;;;;;;;37.50;20.17;;;;;;;11.95;88.83;100183.03;10162573;29;20052;-76
2023/07/22 01:00:26;;;;;;;36.95;20.00;;;;;;;11.86;89.04;100183.88;10164096;29;20536;-76
2023/07/22 01:05:31;;;;;;;31.67;19.15;;;;;;;11.90;89.14;100189.81;10157120;29;20156;-76
2023/07/22 01:10:34;;;;;;;38.13;21.00;;;;;;;11.89;89.01;100178.19;10166530;29;20051;-76
2023/07/22 01:15:37;;;;;;;39.80;20.38;;;;;;;11.80;88.77;100165.59;10160009;29;20140;-76
2023/07/22 01:20:42;;;;;;;36.17;18.95;;;;;;;11.68;88.69;100170.22;10151236;29;20040;-76
2023/07/22 01:25:47;;;;;;;35.40;19.42;;;;;;;11.57;89.02;100180.22;10160933;29;20496;-76
2023/07/22 01:30:50;;;;;;;35.70;19.67;;;;;;;11.39;89.21;100174.66;10160434;29;20048;-77
2023/07/22 01:35:53;;;;;;;35.70;20.50;;;;;;;11.38;88.78;100178.28;10157080;29;20058;-77
2023/07/22 01:40:57;;;;;;;35.38;18.73;;;;;;;11.51;87.80;100173.53;10159542;29;20047;-77
2023/07/22 01:46:01;;;;;;;37.90;18.02;;;;;;;11.42;87.87;100180.59;10146548;29;20892;-76
2023/07/22 01:51:05;;;;;;;39.58;19.08;;;;;;;11.54;87.36;100178.66;10157641;29;20072;-76
2023/07/22 01:56:09;;;;;;;33.70;16.17;;;;;;;11.39;87.06;100167.41;10154302;29;20048;-76
2023/07/22 02:01:13;;;;;;;29.27;16.63;;;;;;;11.41;86.88;100178.03;10152654;29;20053;-76
2023/07/22 02:06:16;;;;;;;27.08;14.57;;;;;;;11.32;86.83;100182.38;10154156;29;20049;-76
2023/07/22 02:11:21;;;;;;;43.35;17.63;;;;;;;11.48;86.55;100181.88;10152842;29;20724;-75
2023/07/22 02:16:24;;;;;;;38.58;18.60;;;;;;;11.58;86.32;100185.47;10151397;29;20051;-75
2023/07/22 02:21:28;;;;;;;30.88;16.85;;;;;;;11.50;86.14;100183.47;10156225;29;20063;-75
2023/07/22 02:26:32;;;;;;;31.88;16.67;;;;;;;11.47;85.89;100178.34;10167981;29;20041;-75
2023/07/22 02:31:35;;;;;;;32.72;16.48;;;;;;;11.58;85.71;100184.63;10160291;29;20409;-77
2023/07/22 02:36:38;;;;;;;29.27;15.95;;;;;;;11.48;85.50;100192.66;10148660;29;20147;-75
2023/07/22 02:41:42;;;;;;;29.58;11.88;;;;;;;11.43;85.10;100194.88;10159682;29;20119;-75
2023/07/22 02:46:45;;;;;;;35.80;15.80;;;;;;;11.52;84.94;100187.84;10152793;29;20055;-74
2023/07/22 02:51:47;;;;;;;31.50;15.07;;;;;;;11.42;85.19;100180.59;10153520;29;20095;-75
2023/07/22 02:56:52;;;;;;;32.17;15.88;;;;;;;11.52;84.68;100187.84;10153644;29;20044;-75
2023/07/22 03:01:56;;;;;;;30.23;14.68;;;;;;;11.48;84.72;100182.72;10150117;29;20045;-74
2023/07/22 03:07:00;;;;;;;27.48;14.15;;;;;;;11.45;85.26;100191.06;10162641;29;20052;-75
2023/07/22 03:12:05;;;;;;;27.88;14.02;;;;;;;11.48;85.18;100187.28;10146814;29;20048;-75
2023/07/22 03:17:08;;;;;;;26.60;14.38;;;;;;;11.52;84.92;100185.16;10148434;29;20082;-76
2023/07/22 03:22:12;;;;;;;33.15;13.88;;;;;;;11.55;84.69;100201.06;10151915;29;20044;-75
2023/07/22 03:27:17;;;;;;;26.08;13.63;;;;;;;11.63;84.83;100203.91;10151605;29;20776;-75
2023/07/22 03:32:20;;;;;;;29.38;14.75;;;;;;;11.68;84.41;100199.81;10146598;29;20041;-75
2023/07/22 03:37:23;;;;;;;30.77;13.77;;;;;;;11.80;83.60;100205.09;10155465;29;20052;-76
2023/07/22 03:42:27;;;;;;;25.25;13.27;;;;;;;11.94;83.76;100210.94;10146585;29;20441;-75
2023/07/22 03:47:30;;;;;;;29.65;14.85;;;;;;;12.00;83.67;100212.22;10152690;29;20044;-75
2023/07/22 03:52:33;;;;;;;27.23;13.45;;;;;;;12.06;82.95;100221.59;10154311;29;20492;-75
2023/07/22 03:57:37;;;;;;;26.88;14.40;;;;;;;12.05;82.68;100218.06;10141069;29;20424;-75
2023/07/22 04:02:40;;;;;;;29.13;14.55;;;;;;;12.07;82.21;100207.16;10145042;29;20088;-75
2023/07/22 04:07:45;;;;;;;22.92;13.95;;;;;;;12.10;81.99;100210.41;10147908;29;20040;-76
2023/07/22 04:12:49;;;;;;;24.63;13.95;;;;;;;12.06;82.01;100222.44;10153167;29;20060;-76
2023/07/22 04:17:52;;;;;;;24.95;13.60;;;;;;;12.09;81.58;100213.25;10149925;29;20135;-76
2023/07/22 04:22:55;;;;;;;27.13;16.10;;;;;;;12.16;82.34;100211.72;10146927;29;20068;-76
2023/07/22 04:28:00;;;;;;;28.58;14.90;;;;;;;12.20;81.75;100214.97;10155320;29;20054;-76
2023/07/22 04:33:03;;;;;;;34.05;15.07;;;;;;;12.17;81.59;100222.31;10160778;29;20052;-76
2023/07/22 04:38:06;;;;;;;27.85;15.10;;;;;;;12.16;81.77;100235.94;10157900;29;20059;-76
2023/07/22 04:43:12;;;;;;;24.35;15.75;;;;;;;12.21;82.10;100239.06;10147530;29;20052;-76
2023/07/22 04:48:15;;;;;;;31.20;15.70;;;;;;;12.24;81.85;100233.41;10155623;29;20294;-76
2023/07/22 04:53:19;;;;;;;30.52;16.42;;;;;;;12.12;82.06;100243.44;10151569;29;20075;-76
2023/07/22 04:58:24;;;;;;;34.38;18.50;;;;;;;12.19;82.60;100232.97;10153413;29;20079;-76
2023/07/22 05:03:26;;;;;;;33.00;18.00;;;;;;;12.18;83.00;100233.97;10156004;29;20064;-75
2023/07/22 05:08:29;;;;;;;34.20;19.50;;;;;;;12.20;83.14;100239.19;10146668;29;20043;-75
2023/07/22 05:13:34;;;;;;;35.42;19.17;;;;;;;12.26;83.35;100239.50;10151856;29;20044;-75
2023/07/22 05:18:38;;;;;;;37.22;18.42;;;;;;;12.14;83.31;100257.59;10154030;29;20422;-75
2023/07/22 05:23:41;;;;;;;32.75;17.70;;;;;;;12.19;82.47;100251.81;10156580;29;20044;-75
2023/07/22 05:28:45;;;;;;;41.70;20.38;;;;;;;12.36;82.49;100253.00;10153466;29;20048;-75
2023/07/22 05:33:48;;;;;;;38.00;20.13;;;;;;;12.40;82.88;100251.75;10161357;29;20040;-75
2023/07/22 05:38:51;;;;;;;37.65;19.33;;;;;;;12.57;83.16;100256.44;10151790;29;20109;-75
2023/07/22 05:43:55;;;;;;;36.28;19.23;;;;;;;12.64;82.69;100262.13;10153134;29;20060;-76
2023/07/22 05:48:58;;;;;;;35.15;18.27;;;;;;;12.93;82.82;100255.91;10152761;29;20048;-75
2023/07/22 05:54:01;;;;;;;32.45;18.50;;;;;;;12.99;81.78;100248.06;10153312;29;20075;-76
2023/07/22 05:59:05;;;;;;;34.75;18.25;;;;;;;13.27;81.59;100248.16;10150409;29;20405;-76
2023/07/22 06:04:08;;;;;;;35.78;19.08;;;;;;;13.48;81.59;100243.47;10153717;29;20044;-75
2023/07/22 06:09:11;;;;;;;27.15;17.13;;;;;;;13.47;80.22;100249.03;10152773;29;20051;-76
2023/07/22 06:14:15;;;;;;;32.35;15.95;;;;;;;13.60;80.35;100257.66;10157044;29;20575;-75
2023/07/22 06:19:18;;;;;;;22.73;13.13;;;;;;;13.72;81.81;100263.72;10148978;29;20062;-75
2023/07/22 06:24:21;;;;;;;25.90;15.43;;;;;;;13.57;79.44;100267.88;10160309;29;20048;-75
2023/07/22 06:29:25;;;;;;;26.98;15.50;;;;;;;13.60;78.72;100256.78;10152272;29;20056;-76
2023/07/22 06:34:28;;;;;;;25.17;14.60;;;;;;;13.81;79.26;100257.41;10147539;29;20041;-75
2023/07/22 06:39:30;;;;;;;23.23;14.02;;;;;;;14.25;78.35;100257.63;10154404;29;20055;-76
2023/07/22 06:44:35;;;;;;;28.50;15.18;;;;;;;14.21;76.21;100250.84;10144423;29;20713;-76
2023/07/22 06:49:37;;;;;;;26.92;15.48;;;;;;;14.00;75.78;100253.78;10154428;29;20051;-75
2023/07/22 06:54:40;;;;;;;29.98;14.73;;;;;;;14.20;74.69;100256.38;10155147;29;20036;-76
2023/07/22 06:59:45;;;;;;;26.80;14.57;;;;;;;14.64;74.72;100251.97;10148262;29;20408;-75
2023/07/22 07:04:47;;;;;;;25.95;14.85;;;;;;;14.69;74.46;100257.78;10153768;29;20047;-75
2023/07/22 07:09:52;;;;;;;24.45;15.05;;;;;;;14.50;75.30;100257.91;10147837;29;20060;-75
2023/07/22 07:14:56;;;;;;;24.00;13.68;;;;;;;14.74;75.15;100254.63;10148436;29;20044;-75
2023/07/22 07:19:59;;;;;;;26.17;13.23;;;;;;;15.03;73.02;100260.63;10154138;29;20074;-75
2023/07/22 07:25:02;;;;;;;24.75;15.15;;;;;;;15.26;73.39;100260.97;10158160;29;20044;-74
2023/07/22 07:30:08;;;;;;;23.10;13.32;;;;;;;14.83;74.46;100268.03;10145253;29;20449;-74
2023/07/22 07:35:11;;;;;;;20.60;14.20;;;;;;;15.73;72.72;100256.22;10150691;29;20047;-74
2023/07/22 07:40:14;;;;;;;20.25;11.82;;;;;;;15.78;68.63;100267.44;10151674;29;20139;-75
2023/07/22 07:45:18;;;;;;;17.83;10.63;;;;;;;16.17;66.19;100258.78;10142654;29;20052;-75
2023/07/22 07:50:22;;;;;;;23.70;11.75;;;;;;;15.93;66.62;100266.66;10153902;29;20045;-75
2023/07/22 07:55:25;;;;;;;19.63;11.23;;;;;;;16.26;67.33;100266.81;10143101;29;20055;-74
2023/07/22 08:00:29;;;;;;;18.67;11.23;;;;;;;17.12;63.85;100267.47;10150933;29;20056;-74
2023/07/22 08:05:32;;;;;;;20.35;12.48;;;;;;;16.69;63.84;100266.75;10147279;29;20602;-74
2023/07/22 08:10:35;;;;;;;21.35;12.60;;;;;;;16.65;62.74;100263.53;10148189;29;20044;-74
2023/07/22 08:15:39;;;;;;;16.45;12.07;;;;;;;16.93;64.62;100272.22;10150653;29;20048;-74
2023/07/22 08:20:42;;;;;;;23.27;11.50;;;;;;;17.61;63.09;100262.84;10143625;29;20048;-74
2023/07/22 08:25:45;;;;;;;19.65;10.52;;;;;;;17.10;62.33;100273.06;10152481;29;20114;-75
2023/07/22 08:30:50;;;;;;;21.13;11.50;;;;;;;16.48;64.46;100265.38;10149208;29;20051;-74
2023/07/22 08:35:53;;;;;;;23.95;12.98;;;;;;;16.40;65.63;100257.22;10147118;29;20040;-74
2023/07/22 08:40:56;;;;;;;19.83;12.52;;;;;;;16.76;64.98;100262.38;10152031;29;20048;-74
2023/07/22 08:46:02;;;;;;;19.23;11.82;;;;;;;17.27;62.74;100281.22;10147703;29;20465;-75
2023/07/22 08:51:11;;;;;;;22.65;12.30;;;;;;;17.65;62.83;100279.66;10149917;29;20075;-74
2023/07/22 08:56:14;;;;;;;22.48;12.02;;;;;;;18.50;60.21;100263.53;10138397;29;20053;-74
2023/07/22 09:01:18;;;;;;;22.42;12.93;;;;;;;18.54;60.36;100266.72;10149183;29;20055;-75
2023/07/22 09:06:22;;;;;;;16.67;10.77;;;;;;;19.06;57.64;100255.19;10144681;29;20037;-75
2023/07/22 09:11:26;;;;;;;17.17;10.93;;;;;;;19.39;55.56;100260.31;10156251;29;20545;-75
2023/07/22 09:16:31;;;;;;;14.52;9.70;;;;;;;18.80;57.39;100253.66;10152193;29;20923;-75
2023/07/22 09:21:36;;;;;;;24.85;10.80;;;;;;;19.15;58.98;100259.53;10149311;29;20071;-74
2023/07/22 09:26:44;;;;;;;16.02;10.20;;;;;;;18.92;58.34;100253.25;10154030;29;20036;-75
2023/07/22 09:31:53;;;;;;;17.55;11.38;;;;;;;19.62;57.26;100258.41;10149396;29;20048;-74
2023/07/22 09:36:57;;;;;;;18.23;10.85;;;;;;;19.74;56.77;100250.63;10158684;29;20040;-74
2023/07/22 09:42:01;;;;;;;22.67;10.88;;;;;;;18.53;57.62;100256.88;10149171;29;20107;-74
2023/07/22 09:47:09;;;;;;;19.27;11.18;;;;;;;19.64;56.00;100239.16;10164878;29;20431;-74
2023/07/22 09:52:13;;;;;;;12.98;9.15;;;;;;;19.66;53.74;100243.41;10154141;29;20044;-74
2023/07/22 09:57:16;;;;;;;13.85;8.52;;;;;;;18.85;54.81;100249.56;10147644;29;20035;-74
2023/07/22 10:02:23;;;;;;;16.67;10.30;;;;;;;18.83;56.35;100235.28;10158647;29;20044;-73
2023/07/22 10:07:27;;;;;;;14.93;9.98;;;;;;;19.09;55.82;100229.44;10151021;29;20037;-74
2023/07/22 10:12:30;;;;;;;14.48;8.10;;;;;;;19.35;55.82;100232.59;10153513;29;20407;-74
2023/07/22 10:17:35;;;;;;;13.82;9.02;;;;;;;19.78;51.59;100219.25;10152846;29;20481;-74
2023/07/22 10:22:38;;;;;;;15.30;9.80;;;;;;;20.16;51.25;100221.84;10150368;29;20053;-73
2023/07/22 10:27:41;;;;;;;14.02;7.95;;;;;;;20.34;50.90;100211.34;10149111;29;20032;-74
2023/07/22 10:32:47;;;;;;;11.25;7.10;;;;;;;19.70;49.07;100216.63;10148677;29;20492;-74
2023/07/22 10:37:50;;;;;;;10.07;7.47;;;;;;;20.76;49.10;100204.25;10150656;29;20092;-75
2023/07/22 10:42:58;;;;;;;11.75;6.47;;;;;;;20.75;48.92;100204.44;10145056;29;20041;-74
2023/07/22 10:48:06;;;;;;;10.32;8.05;;;;;;;20.92;48.15;100199.53;10152877;29;20052;-75
2023/07/22 10:53:11;;;;;;;10.10;6.70;;;;;;;21.50;47.11;100192.03;10145696;29;20527;-74
2023/07/22 10:58:14;;;;;;;12.20;6.72;;;;;;;20.67;46.48;100190.91;10152695;29;20420;-74
2023/07/22 11:03:21;;;;;;;12.38;7.82;;;;;;;21.12;48.05;100192.41;10149694;29;20032;-74
2023/07/22 11:08:37;;;;;;;10.45;7.35;;;;;;;20.21;49.27;100185.78;10151029;29;20036;-74
2023/07/22 11:13:41;;;;;;;12.02;7.90;;;;;;;19.47;50.94;100181.25;10152735;29;20041;-74
2023/07/22 11:18:45;;;;;;;8.93;6.70;;;;;;;19.74;49.10;100174.31;10138309;29;20048;-74
2023/07/22 11:23:48;;;;;;;9.32;6.72;;;;;;;20.46;47.71;100173.53;10156355;29;20044;-74
2023/07/22 11:28:52;;;;;;;9.52;6.78;;;;;;;20.04;47.45;100164.19;10148607;29;20044;-74
2023/07/22 11:33:57;;;;;;;10.20;6.38;;;;;;;20.03;46.68;100162.53;10142480;29;20051;-74
2023/07/22 11:39:03;;;;;;;8.63;6.28;;;;;;;21.04;45.54;100154.31;10157925;29;20052;-74
2023/07/22 11:44:08;;;;;;;12.15;6.78;;;;;;;21.97;44.62;100148.53;10142018;29;20045;-75
2023/07/22 11:49:13;;;;;;;7.47;5.70;;;;;;;21.57;43.57;100151.91;10151951;29;20048;-74
2023/07/22 11:54:17;;;;;;;16.33;6.45;;;;;;;20.66;44.56;100151.88;10149663;29;20044;-74
2023/07/22 11:59:33;;;;;;;8.82;6.97;;;;;;;21.29;44.23;100135.59;10146139;29;20052;-74
2023/07/22 12:04:39;;;;;;;10.23;6.50;;;;;;;20.57;45.26;100150.34;10146421;29;20036;-74
2023/07/22 12:09:42;;;;;;;7.43;6.50;;;;;;;21.09;44.88;100148.25;10143076;29;20056;-74
2023/07/22 12:14:44;;;;;;;9.75;7.03;;;;;;;21.35;43.96;100137.50;10148621;29;20032;-74
2023/07/22 12:19:54;;;;;;;10.57;6.57;;;;;;;21.11;44.43;100129.78;10152767;29;20048;-74
2023/07/22 12:25:01;;;;;;;6.70;5.50;;;;;;;21.01;43.99;100141.03;10152451;29;20050;-74
2023/07/22 12:30:08;;;;;;;7.88;6.22;;;;;;;20.94;43.69;100140.16;10136971;29;20469;-75
2023/07/22 12:35:13;;;;;;;6.97;5.72;;;;;;;21.27;43.37;100123.19;10155190;29;20047;-74
2023/07/22 12:40:16;;;;;;;8.07;5.55;;;;;;;21.16;43.47;100116.38;10147450;29;20045;-74
2023/07/22 12:45:19;;;;;;;6.63;5.70;;;;;;;22.63;42.06;100110.41;10155182;29;20052;-75
2023/07/22 12:50:23;;;;;;;7.85;4.82;;;;;;;23.25;40.29;100110.16;10163797;29;20048;-75
2023/07/22 12:55:26;;;;;;;9.13;5.28;;;;;;;21.53;41.42;100109.66;10146904;29;20040;-75
2023/07/22 13:00:29;;;;;;;5.05;4.55;;;;;;;22.93;39.54;100099.88;10160425;29;20056;-74
2023/07/22 13:05:33;;;;;;;7.00;4.45;;;;;;;22.91;38.89;100106.63;10154091;29;20055;-75
2023/07/22 13:10:38;;;;;;;5.72;4.90;;;;;;;22.53;41.09;100110.81;10154341;29;20040;-75
2023/07/22 13:15:41;;;;;;;7.00;5.18;;;;;;;21.95;41.34;100109.66;10153770;29;20400;-75
2023/07/22 13:20:45;;;;;;;5.20;4.65;;;;;;;21.14;42.39;100100.19;10152593;29;20048;-74
2023/07/22 13:25:48;;;;;;;5.53;4.20;;;;;;;20.83;43.71;100091.56;10155723;29;20062;-74
2023/07/22 13:30:51;;;;;;;8.38;5.30;;;;;;;21.47;41.53;100088.59;10147086;29;20076;-75
2023/07/22 13:35:55;;;;;;;5.40;4.80;;;;;;;22.18;42.19;100090.97;10156598;29;20051;-75
2023/07/22 13:40:58;;;;;;;6.72;4.97;;;;;;;22.22;41.79;100080.47;10148846;29;20113;-75
2023/07/22 13:46:01;;;;;;;5.43;4.43;;;;;;;22.06;41.20;100073.50;10153256;29;20051;-75
2023/07/22 13:51:05;;;;;;;4.78;4.32;;;;;;;23.54;40.04;100067.69;10153259;29;20068;-75
2023/07/22 13:56:08;;;;;;;6.38;4.38;;;;;;;23.82;39.05;100067.38;10147384;29;20048;-76
2023/07/22 14:01:11;;;;;;;4.60;4.07;;;;;;;24.00;36.84;100066.66;10160351;29;20427;-75
2023/07/22 14:06:15;;;;;;;6.15;3.65;;;;;;;22.99;39.08;100054.34;10140630;29;20147;-75
2023/07/22 14:11:19;;;;;;;4.88;4.38;;;;;;;23.72;37.84;100054.09;10151935;29;20056;-75
2023/07/22 14:16:22;;;;;;;6.00;4.35;;;;;;;23.04;38.62;100048.22;10149390;29;20048;-75
2023/07/22 14:21:26;;;;;;;5.47;3.72;;;;;;;22.24;40.30;100051.00;10147575;29;20056;-75
2023/07/22 14:26:30;;;;;;;4.20;3.80;;;;;;;22.07;39.03;100066.97;10148498;29;20052;-74
2023/07/22 14:31:32;;;;;;;4.15;3.50;;;;;;;22.13;40.07;100046.97;10142325;29;20151;-74
2023/07/22 14:36:37;;;;;;;4.85;4.40;;;;;;;22.93;38.04;100031.41;10149866;29;20051;-75
2023/07/22 14:41:42;;;;;;;6.88;3.53;;;;;;;21.79;39.98;100028.84;10138270;29;20052;-75
2023/07/22 14:46:44;;;;;;;5.35;3.65;;;;;;;21.29;39.75;100031.78;10147727;29;20036;-74
2023/07/22 14:51:49;;;;;;;4.70;3.60;;;;;;;22.22;38.63;100026.59;10144293;29;20050;-75
2023/07/22 14:56:51;;;;;;;4.85;3.53;;;;;;;23.29;37.95;100012.78;10145985;29;20041;-75
2023/07/22 15:01:54;;;;;;;4.75;3.67;;;;;;;23.15;36.92;100018.31;10147120;29;20059;-75
2023/07/22 15:06:58;;;;;;;3.80;2.65;;;;;;;22.55;37.70;100023.03;10138854;29;20059;-75
2023/07/22 15:12:02;;;;;;;2.78;2.55;;;;;;;22.20;39.13;100014.19;10153757;29;20412;-75
2023/07/22 15:17:05;;;;;;;2.67;2.47;;;;;;;22.20;39.09;100012.28;10135621;29;20115;-74
2023/07/22 15:22:10;;;;;;;3.00;2.47;;;;;;;21.63;39.26;100005.41;10145960;29;20047;-75
2023/07/22 15:27:12;;;;;;;3.78;2.30;;;;;;;22.25;37.93;99998.81;10151053;29;20051;-74
2023/07/22 15:32:16;;;;;;;2.60;2.38;;;;;;;22.82;37.72;99998.34;10138272;29;20051;-75
2023/07/22 15:37:20;;;;;;;4.20;2.53;;;;;;;22.19;38.95;99998.78;10144265;29;20052;-75
2023/07/22 15:42:23;;;;;;;4.63;2.70;;;;;;;21.77;39.21;99989.94;10143463;29;20056;-75
2023/07/22 15:47:26;;;;;;;3.25;2.70;;;;;;;22.38;38.98;99989.78;10143945;29;20037;-75
2023/07/22 15:52:30;;;;;;;2.67;2.45;;;;;;;23.15;38.21;99992.81;10133881;29;20504;-75
2023/07/22 15:57:33;;;;;;;2.15;1.95;;;;;;;23.02;36.56;99998.31;10139853;29;20546;-74
2023/07/22 16:02:35;;;;;;;5.07;2.70;;;;;;;22.74;39.00;99983.84;10141211;29;20041;-75
2023/07/22 16:07:40;;;;;;;2.58;2.35;;;;;;;23.69;37.96;99975.03;10142916;29;20060;-75
2023/07/22 16:12:43;;;;;;;3.53;2.65;;;;;;;22.97;38.53;99966.91;10146649;29;20547;-75
2023/07/22 16:17:46;;;;;;;3.67;2.58;;;;;;;24.35;37.14;99965.47;10143232;29;20041;-75
2023/07/22 16:22:50;;;;;;;3.75;2.10;;;;;;;23.11;38.11;99970.47;10161500;29;20496;-75
2023/07/22 16:27:53;;;;;;;2.63;2.42;;;;;;;22.78;37.80;99954.97;10151530;29;20476;-75
2023/07/22 16:32:55;;;;;;;3.28;2.33;;;;;;;22.81;38.04;99961.09;10155621;29;20052;-75
2023/07/22 16:38:00;;;;;;;2.95;2.30;;;;;;;22.88;37.66;99957.28;10161548;29;20047;-75
2023/07/22 16:43:03;;;;;;;4.43;2.90;;;;;;;22.94;38.27;99963.78;10146525;29;20051;-75
2023/07/22 16:48:06;;;;;;;4.03;2.72;;;;;;;23.04;38.18;99964.19;10158934;29;20040;-74
2023/07/22 16:53:10;;;;;;;3.97;2.55;;;;;;;22.32;38.89;99955.91;10153454;29;20062;-75
2023/07/22 16:58:13;;;;;;;2.42;2.20;;;;;;;21.16;40.40;99952.53;10161098;29;20039;-74
2023/07/22 17:03:16;;;;;;;2.95;2.40;;;;;;;22.00;39.59;99945.81;10166404;29;20500;-75
2023/07/22 17:08:20;;;;;;;4.13;2.58;;;;;;;21.91;39.38;99944.31;10154039;29;20040;-74
2023/07/22 17:13:23;;;;;;;4.60;2.83;;;;;;;21.77;40.37;99949.75;10151449;29;20044;-75
2023/07/22 17:18:26;;;;;;;7.63;3.53;;;;;;;21.26;41.97;99960.34;10151653;29;20045;-75
2023/07/22 17:23:30;;;;;;;3.65;3.00;;;;;;;21.23;41.91;99956.97;10156598;29;20049;-75
2023/07/22 17:28:33;;;;;;;4.30;2.92;;;;;;;20.63;42.60;99961.28;10155967;29;20040;-74
2023/07/22 17:33:36;;;;;;;4.93;3.00;;;;;;;21.01;42.40;99960.84;10154549;29;20048;-75
2023/07/22 17:38:41;;;;;;;4.10;2.83;;;;;;;21.34;42.42;99949.25;10151169;29;20552;-74
2023/07/22 17:43:44;;;;;;;2.75;2.45;;;;;;;21.31;42.84;99942.31;10153579;29;20052;-75
2023/07/22 17:48:47;;;;;;;6.93;3.00;;;;;;;21.32;43.18;99941.25;10154377;29;20089;-75
2023/07/22 17:53:51;;;;;;;5.82;3.13;;;;;;;21.08;43.54;99934.44;10138879;29;20504;-75
2023/07/22 17:58:54;;;;;;;5.40;2.83;;;;;;;20.74;43.62;99933.41;10157367;29;20066;-74
2023/07/22 18:03:56;;;;;;;5.18;2.75;;;;;;;20.92;43.54;99937.47;10146957;29;20056;-75
2023/07/22 18:09:01;;;;;;;4.47;3.13;;;;;;;20.93;43.80;99931.00;10155877;29;20044;-75
2023/07/22 18:14:03;;;;;;;4.65;3.55;;;;;;;20.99;44.14;99927.44;10154474;29;20128;-75
2023/07/22 18:19:07;;;;;;;3.10;2.80;;;;;;;20.74;44.49;99932.56;10148829;29;20044;-74
2023/07/22 18:24:11;;;;;;;2.85;2.65;;;;;;;20.47;44.98;99929.69;10159733;29;20148;-73
2023/07/22 18:29:14;;;;;;;5.47;3.05;;;;;;;20.48;45.31;99930.53;10147696;29;20048;-75
2023/07/22 18:34:21;;;;;;;5.63;3.30;;;;;;;20.45;47.64;99944.56;10149633;29;20050;-75
2023/07/22 18:39:25;;;;;;;5.15;3.65;;;;;;;20.31;48.90;99952.66;10156916;29;20076;-76
2023/07/22 18:44:28;;;;;;;5.68;4.00;;;;;;;20.13;50.36;99947.66;10150918;29;20048;-76
2023/07/22 18:49:31;;;;;;;4.70;4.28;;;;;;;19.81;52.25;99953.69;10160054;29;20366;-75
2023/07/22 18:54:35;;;;;;;7.40;5.18;;;;;;;19.59;53.96;99963.72;10151859;29;20056;-75
2023/07/22 18:59:38;;;;;;;5.70;4.72;;;;;;;19.44;55.86;99961.88;10160129;29;20046;-75
2023/07/22 19:04:41;;;;;;;5.97;4.60;;;;;;;19.22;57.05;99968.28;10169320;29;20040;-75
2023/07/22 19:09:46;;;;;;;6.95;5.50;;;;;;;18.93;58.48;99964.59;10159612;29;20099;-75
2023/07/22 19:14:51;;;;;;;9.00;5.40;;;;;;;18.83;59.29;99963.19;10149195;29;20527;-75
2023/07/22 19:19:54;;;;;;;7.15;5.95;;;;;;;18.68;60.42;99969.47;10158672;29;20052;-75
2023/07/22 19:24:58;;;;;;;6.97;5.70;;;;;;;18.51;61.17;99968.78;10162178;29;20455;-75
2023/07/22 19:30:01;;;;;;;9.40;6.78;;;;;;;18.34;61.76;99973.53;10158243;29;20424;-74
2023/07/22 19:35:04;;;;;;;8.80;6.07;;;;;;;18.29;61.87;99984.16;10157264;29;20051;-75
2023/07/22 19:40:10;;;;;;;7.88;5.38;;;;;;;18.27;62.04;99985.34;10150706;29;20066;-74
2023/07/22 19:45:13;;;;;;;10.02;5.60;;;;;;;18.24;62.42;99974.81;10157086;29;20048;-75
2023/07/22 19:50:16;;;;;;;6.30;5.57;;;;;;;18.21;62.78;99970.63;10163003;29;20043;-76
2023/07/22 19:55:20;;;;;;;10.82;6.22;;;;;;;18.18;62.90;99970.97;10150912;29;20047;-76
2023/07/22 20:00:23;;;;;;;7.38;5.30;;;;;;;18.17;63.16;99965.72;10159465;29;20057;-75
2023/07/22 20:05:26;;;;;;;7.45;6.25;;;;;;;18.14;63.39;99970.50;10151220;29;20551;-76
2023/07/22 20:10:30;;;;;;;7.07;6.28;;;;;;;18.00;63.30;99974.03;10154249;29;20078;-75
2023/07/22 20:15:34;;;;;;;8.98;5.80;;;;;;;17.87;64.22;99971.03;10143232;29;20052;-77
2023/07/22 20:20:36;;;;;;;9.27;5.30;;;;;;;17.66;64.64;99982.56;10153822;29;20158;-75
2023/07/22 20:25:41;;;;;;;7.03;4.68;;;;;;;17.50;65.51;99982.66;10154178;29;20504;-76
2023/07/22 20:30:44;;;;;;;7.47;5.00;;;;;;;17.12;68.95;99985.25;10148940;29;20044;-75
2023/07/22 20:35:53;;;;;;;9.63;6.25;;;;;;;16.86;69.85;100008.03;10153511;29;20123;-74
2023/07/22 20:40:58;;;;;;;10.48;6.32;;;;;;;17.22;70.14;100002.16;10152322;29;20060;-74
2023/07/22 20:46:05;;;;;;;8.82;6.85;;;;;;;17.16;70.32;100025.44;10150012;29;20091;-76
2023/07/22 20:51:08;;;;;;;9.65;7.68;;;;;;;16.85;72.00;100010.94;10144022;29;20052;-74
2023/07/22 20:56:12;;;;;;;11.15;7.80;;;;;;;16.71;73.95;100021.50;10154462;29;20056;-75
2023/07/22 21:01:15;;;;;;;12.80;8.98;;;;;;;16.73;75.84;100022.19;10156971;29;20047;-74
2023/07/22 21:06:18;;;;;;;15.45;8.88;;;;;;;16.80;78.29;100025.88;10175801;29;20067;-75
2023/07/22 21:11:23;;;;;;;11.20;8.55;;;;;;;16.53;79.30;100029.81;10171163;29;20052;-73
2023/07/22 21:16:26;;;;;;;12.23;8.95;;;;;;;16.48;81.34;100031.34;10166181;29;20040;-74
2023/07/22 21:21:28;;;;;;;11.48;9.75;;;;;;;16.25;81.92;100036.59;10164465;29;20047;-75
2023/07/22 21:26:34;;;;;;;12.38;8.88;;;;;;;15.87;84.18;100039.78;10157321;29;20052;-76
2023/07/22 21:31:37;;;;;;;15.25;10.38;;;;;;;16.02;86.19;100034.56;10162030;29;20040;-74
2023/07/22 21:36:40;;;;;;;15.85;10.75;;;;;;;16.03;86.97;100043.53;10161885;29;20048;-76
2023/07/22 21:41:45;;;;;;;15.20;11.00;;;;;;;16.03;88.21;100040.81;10154853;29;20044;-77
2023/07/22 21:46:48;;;;;;;18.45;10.75;;;;;;;15.98;88.36;100025.06;10162897;29;20055;-75
2023/07/22 21:51:51;;;;;;;16.50;11.50;;;;;;;15.87;89.10;100033.53;10165449;29;20524;-76
2023/07/22 21:56:55;;;;;;;19.20;12.68;;;;;;;15.75;88.95;100035.72;10158465;29;20056;-76
2023/07/22 22:01:58;;;;;;;17.13;13.02;;;;;;;15.74;89.75;100036.72;10157853;29;20048;-76
2023/07/22 22:07:01;;;;;;;18.65;11.32;;;;;;;15.80;90.07;100037.94;10156193;29;20048;-76
2023/07/22 22:12:06;;;;;;;17.10;12.02;;;;;;;15.86;90.12;100035.41;10162149;29;20048;-76
2023/07/22 22:17:09;;;;;;;18.10;12.32;;;;;;;15.90;90.47;100035.91;10157264;29;20523;-76
2023/07/22 22:22:12;;;;;;;17.15;12.27;;;;;;;15.90;90.86;100039.44;10159122;29;20052;-75
2023/07/22 22:27:17;;;;;;;14.02;11.48;;;;;;;16.01;90.98;100038.28;10153011;29;20040;-77
2023/07/22 22:32:20;;;;;;;17.30;11.85;;;;;;;15.97;91.42;100030.66;10155865;29;20040;-76
2023/07/22 22:37:23;;;;;;;16.75;11.70;;;;;;;15.92;90.76;100036.59;10148070;29;20044;-76
2023/07/22 22:42:27;;;;;;;16.63;11.95;;;;;;;15.78;90.41;100035.38;10153943;29;20516;-77
2023/07/22 22:47:30;;;;;;;18.42;13.35;;;;;;;15.77;91.39;100022.00;10154689;29;20044;-77
2023/07/22 22:52:34;;;;;;;20.63;12.80;;;;;;;15.66;91.02;100013.19;10145180;29;20550;-76
2023/07/22 22:57:38;;;;;;;18.85;12.43;;;;;;;15.64;91.17;100017.09;10161469;29;20073;-76
2023/07/22 23:02:41;;;;;;;18.83;12.43;;;;;;;15.63;91.26;100015.38;10164703;29;20056;-75